sensor_id;sensor_type;location;lat;lon;timestamp;P1;durP1;ratioP1;P2;durP2;ratioP2
795;SDS011;381;48.770;9.188;2022-10-16T00:01:22;5.33;;;4.30;;
795;SDS011;381;48.770;9.188;2022-10-16T00:06:31;6.13;;;4.50;;
795;SDS011;381;48.770;9.188;2022-10-16T00:11:35;5.10;;;4.60;;
795;SDS011;381;48.770;9.188;2022-10-16T00:16:42;4.57;;;4.17;;
795;SDS011;381;48.770;9.188;2022-10-16T00:21:44;4.83;;;4.17;;
795;SDS011;381;48.770;9.188;2022-10-16T00:26:49;4.50;;;4.30;;
795;SDS011;381;48.770;9.188;2022-10-16T00:31:51;4.73;;;4.37;;
795;SDS011;381;48.770;9.188;2022-10-16T00:36:53;4.43;;;3.97;;
795;SDS011;381;48.770;9.188;2022-10-16T00:41:57;6.43;;;4.20;;
795;SDS011;381;48.770;9.188;2022-10-16T00:46:59;4.30;;;4.10;;
795;SDS011;381;48.770;9.188;2022-10-16T00:52:01;4.93;;;4.43;;
795;SDS011;381;48.770;9.188;2022-10-16T00:57:05;4.57;;;4.13;;
795;SDS011;381;48.770;9.188;2022-10-16T01:02:10;4.10;;;3.80;;
795;SDS011;381;48.770;9.188;2022-10-16T01:07:14;8.77;;;4.40;;
795;SDS011;381;48.770;9.188;2022-10-16T01:12:29;4.33;;;4.00;;
795;SDS011;381;48.770;9.188;2022-10-16T01:17:39;4.63;;;3.97;;
795;SDS011;381;48.770;9.188;2022-10-16T01:22:49;5.70;;;4.93;;
795;SDS011;381;48.770;9.188;2022-10-16T01:28:00;5.93;;;5.00;;
795;SDS011;381;48.770;9.188;2022-10-16T01:33:06;5.57;;;4.97;;
795;SDS011;381;48.770;9.188;2022-10-16T01:38:16;5.97;;;5.67;;
795;SDS011;381;48.770;9.188;2022-10-16T01:43:24;5.60;;;5.13;;
795;SDS011;381;48.770;9.188;2022-10-16T01:48:30;8.70;;;5.67;;
795;SDS011;381;48.770;9.188;2022-10-16T01:53:34;5.70;;;5.20;;
795;SDS011;381;48.770;9.188;2022-10-16T01:58:39;5.70;;;5.40;;
795;SDS011;381;48.770;9.188;2022-10-16T02:03:45;5.67;;;5.37;;
795;SDS011;381;48.770;9.188;2022-10-16T02:08:51;6.50;;;5.87;;
795;SDS011;381;48.770;9.188;2022-10-16T02:13:55;7.53;;;4.80;;
795;SDS011;381;48.770;9.188;2022-10-16T02:19:03;5.47;;;5.10;;
795;SDS011;381;48.770;9.188;2022-10-16T02:24:07;4.93;;;4.57;;
795;SDS011;381;48.770;9.188;2022-10-16T02:29:16;5.23;;;4.83;;
795;SDS011;381;48.770;9.188;2022-10-16T02:34:22;6.67;;;5.03;;
795;SDS011;381;48.770;9.188;2022-10-16T02:39:27;7.60;;;5.30;;
795;SDS011;381;48.770;9.188;2022-10-16T02:44:32;5.23;;;4.93;;
795;SDS011;381;48.770;9.188;2022-10-16T02:49:34;5.47;;;5.17;;
795;SDS011;381;48.770;9.188;2022-10-16T02:54:36;6.23;;;5.20;;
795;SDS011;381;48.770;9.188;2022-10-16T02:59:39;5.90;;;5.60;;
795;SDS011;381;48.770;9.188;2022-10-16T03:04:44;5.67;;;5.27;;
795;SDS011;381;48.770;9.188;2022-10-16T03:09:46;5.73;;;5.40;;
795;SDS011;381;48.770;9.188;2022-10-16T03:14:50;5.40;;;5.07;;
795;SDS011;381;48.770;9.188;2022-10-16T03:19:52;6.40;;;5.90;;
795;SDS011;381;48.770;9.188;2022-10-16T03:24:54;5.33;;;5.13;;
795;SDS011;381;48.770;9.188;2022-10-16T03:29:57;6.20;;;5.90;;
795;SDS011;381;48.770;9.188;2022-10-16T03:34:59;6.20;;;5.60;;
795;SDS011;381;48.770;9.188;2022-10-16T03:40:01;6.33;;;5.93;;
795;SDS011;381;48.770;9.188;2022-10-16T03:45:05;7.37;;;5.50;;
795;SDS011;381;48.770;9.188;2022-10-16T03:50:08;5.80;;;5.40;;
795;SDS011;381;48.770;9.188;2022-10-16T03:55:10;6.67;;;6.07;;
795;SDS011;381;48.770;9.188;2022-10-16T04:00:13;7.57;;;5.87;;
795;SDS011;381;48.770;9.188;2022-10-16T04:05:16;10.40;;;6.20;;
795;SDS011;381;48.770;9.188;2022-10-16T04:10:18;6.10;;;5.50;;
795;SDS011;381;48.770;9.188;2022-10-16T04:15:21;6.03;;;5.53;;
795;SDS011;381;48.770;9.188;2022-10-16T04:20:24;6.63;;;6.17;;
795;SDS011;381;48.770;9.188;2022-10-16T04:25:26;5.63;;;5.13;;
795;SDS011;381;48.770;9.188;2022-10-16T04:30:29;5.20;;;5.00;;
795;SDS011;381;48.770;9.188;2022-10-16T04:35:31;5.83;;;5.33;;
795;SDS011;381;48.770;9.188;2022-10-16T04:40:33;6.00;;;4.93;;
795;SDS011;381;48.770;9.188;2022-10-16T04:45:38;5.00;;;4.60;;
795;SDS011;381;48.770;9.188;2022-10-16T04:50:40;5.50;;;5.10;;
795;SDS011;381;48.770;9.188;2022-10-16T04:55:43;6.23;;;5.93;;
795;SDS011;381;48.770;9.188;2022-10-16T05:00:46;6.00;;;5.17;;
795;SDS011;381;48.770;9.188;2022-10-16T05:05:48;5.13;;;4.83;;
795;SDS011;381;48.770;9.188;2022-10-16T05:10:50;6.80;;;5.47;;
795;SDS011;381;48.770;9.188;2022-10-16T05:15:54;5.83;;;5.50;;
795;SDS011;381;48.770;9.188;2022-10-16T05:20:56;7.53;;;5.80;;
795;SDS011;381;48.770;9.188;2022-10-16T05:25:58;6.13;;;5.63;;
795;SDS011;381;48.770;9.188;2022-10-16T05:31:05;5.47;;;4.97;;
795;SDS011;381;48.770;9.188;2022-10-16T05:36:08;6.03;;;5.63;;
795;SDS011;381;48.770;9.188;2022-10-16T05:41:11;6.63;;;6.10;;
795;SDS011;381;48.770;9.188;2022-10-16T05:46:14;8.17;;;6.63;;
795;SDS011;381;48.770;9.188;2022-10-16T05:51:16;6.13;;;5.63;;
795;SDS011;381;48.770;9.188;2022-10-16T05:56:19;6.37;;;5.60;;
795;SDS011;381;48.770;9.188;2022-10-16T06:01:22;5.60;;;5.13;;
795;SDS011;381;48.770;9.188;2022-10-16T06:06:25;39.17;;;31.87;;
795;SDS011;381;48.770;9.188;2022-10-16T06:11:29;26.20;;;18.70;;
795;SDS011;381;48.770;9.188;2022-10-16T06:16:34;62.60;;;46.70;;
795;SDS011;381;48.770;9.188;2022-10-16T06:21:37;29.97;;;26.80;;
795;SDS011;381;48.770;9.188;2022-10-16T06:26:39;46.70;;;41.60;;
795;SDS011;381;48.770;9.188;2022-10-16T06:31:43;27.67;;;24.43;;
795;SDS011;381;48.770;9.188;2022-10-16T06:36:45;32.80;;;29.60;;
795;SDS011;381;48.770;9.188;2022-10-16T06:41:47;19.60;;;17.90;;
795;SDS011;381;48.770;9.188;2022-10-16T06:46:51;12.90;;;11.70;;
795;SDS011;381;48.770;9.188;2022-10-16T06:51:53;13.70;;;12.60;;
795;SDS011;381;48.770;9.188;2022-10-16T06:56:54;14.43;;;11.93;;
795;SDS011;381;48.770;9.188;2022-10-16T07:07:35;17.47;;;12.33;;
795;SDS011;381;48.770;9.188;2022-10-16T07:12:38;6.87;;;6.33;;
795;SDS011;381;48.770;9.188;2022-10-16T07:17:40;10.57;;;9.47;;
795;SDS011;381;48.770;9.188;2022-10-16T07:22:43;21.53;;;13.97;;
795;SDS011;381;48.770;9.188;2022-10-16T07:27:45;16.17;;;11.93;;
795;SDS011;381;48.770;9.188;2022-10-16T07:32:47;10.83;;;9.23;;
795;SDS011;381;48.770;9.188;2022-10-16T07:37:51;10.13;;;8.93;;
795;SDS011;381;48.770;9.188;2022-10-16T07:42:53;9.13;;;8.23;;
795;SDS011;381;48.770;9.188;2022-10-16T07:47:55;11.03;;;7.63;;
795;SDS011;381;48.770;9.188;2022-10-16T07:52:58;9.13;;;8.10;;
795;SDS011;381;48.770;9.188;2022-10-16T07:58:01;13.23;;;9.20;;
795;SDS011;381;48.770;9.188;2022-10-16T08:03:03;11.80;;;8.47;;
795;SDS011;381;48.770;9.188;2022-10-16T08:08:10;9.63;;;8.60;;
795;SDS011;381;48.770;9.188;2022-10-16T08:13:14;9.17;;;8.30;;
795;SDS011;381;48.770;9.188;2022-10-16T08:18:16;6.93;;;6.23;;
795;SDS011;381;48.770;9.188;2022-10-16T08:23:20;7.03;;;6.40;;
795;SDS011;381;48.770;9.188;2022-10-16T08:28:22;5.13;;;4.60;;
795;SDS011;381;48.770;9.188;2022-10-16T08:33:24;5.03;;;4.43;;
795;SDS011;381;48.770;9.188;2022-10-16T08:38:28;9.93;;;5.10;;
795;SDS011;381;48.770;9.188;2022-10-16T08:43:34;5.70;;;5.17;;
795;SDS011;381;48.770;9.188;2022-10-16T08:48:46;5.57;;;5.10;;
795;SDS011;381;48.770;9.188;2022-10-16T08:53:53;4.67;;;4.23;;
795;SDS011;381;48.770;9.188;2022-10-16T08:58:58;9.93;;;6.80;;
795;SDS011;381;48.770;9.188;2022-10-16T09:04:04;5.20;;;4.63;;
795;SDS011;381;48.770;9.188;2022-10-16T09:09:26;4.57;;;3.87;;
795;SDS011;381;48.770;9.188;2022-10-16T09:14:44;4.80;;;3.90;;
795;SDS011;381;48.770;9.188;2022-10-16T09:20:07;5.63;;;5.13;;
795;SDS011;381;48.770;9.188;2022-10-16T09:25:21;5.27;;;4.97;;
795;SDS011;381;48.770;9.188;2022-10-16T09:30:23;3.70;;;3.50;;
795;SDS011;381;48.770;9.188;2022-10-16T09:35:31;4.37;;;4.17;;
795;SDS011;381;48.770;9.188;2022-10-16T09:40:39;3.40;;;3.30;;
795;SDS011;381;48.770;9.188;2022-10-16T09:45:52;4.20;;;4.00;;
795;SDS011;381;48.770;9.188;2022-10-16T09:50:56;4.43;;;3.87;;
795;SDS011;381;48.770;9.188;2022-10-16T09:56:00;4.37;;;4.03;;
795;SDS011;381;48.770;9.188;2022-10-16T10:01:04;4.27;;;3.90;;
795;SDS011;381;48.770;9.188;2022-10-16T10:06:17;6.10;;;3.90;;
795;SDS011;381;48.770;9.188;2022-10-16T10:11:42;3.60;;;3.40;;
795;SDS011;381;48.770;9.188;2022-10-16T10:16:49;4.70;;;4.40;;
795;SDS011;381;48.770;9.188;2022-10-16T10:21:53;4.00;;;3.60;;
795;SDS011;381;48.770;9.188;2022-10-16T10:26:58;5.57;;;5.20;;
795;SDS011;381;48.770;9.188;2022-10-16T10:32:12;4.80;;;4.50;;
795;SDS011;381;48.770;9.188;2022-10-16T10:37:29;5.17;;;4.87;;
795;SDS011;381;48.770;9.188;2022-10-16T10:42:46;9.03;;;8.20;;
795;SDS011;381;48.770;9.188;2022-10-16T10:48:06;6.40;;;6.00;;
795;SDS011;381;48.770;9.188;2022-10-16T10:53:29;4.90;;;4.60;;
795;SDS011;381;48.770;9.188;2022-10-16T10:58:50;6.00;;;4.80;;
795;SDS011;381;48.770;9.188;2022-10-16T11:09:57;5.17;;;4.77;;
795;SDS011;381;48.770;9.188;2022-10-16T11:15:07;11.07;;;10.27;;
795;SDS011;381;48.770;9.188;2022-10-16T11:20:16;5.10;;;4.80;;
795;SDS011;381;48.770;9.188;2022-10-16T11:25:22;7.80;;;7.23;;
795;SDS011;381;48.770;9.188;2022-10-16T11:30:31;7.70;;;7.20;;
795;SDS011;381;48.770;9.188;2022-10-16T11:35:40;5.80;;;5.30;;
795;SDS011;381;48.770;9.188;2022-10-16T11:40:45;5.23;;;4.60;;
795;SDS011;381;48.770;9.188;2022-10-16T11:45:53;5.33;;;5.03;;
795;SDS011;381;48.770;9.188;2022-10-16T11:50:57;7.00;;;5.77;;
795;SDS011;381;48.770;9.188;2022-10-16T11:56:06;4.80;;;4.47;;
795;SDS011;381;48.770;9.188;2022-10-16T12:01:13;4.33;;;4.07;;
795;SDS011;381;48.770;9.188;2022-10-16T12:06:22;3.80;;;3.60;;
795;SDS011;381;48.770;9.188;2022-10-16T12:11:32;3.40;;;3.30;;
795;SDS011;381;48.770;9.188;2022-10-16T12:16:38;4.00;;;3.80;;
795;SDS011;381;48.770;9.188;2022-10-16T12:21:52;3.43;;;3.13;;
795;SDS011;381;48.770;9.188;2022-10-16T12:26:58;4.87;;;4.27;;
795;SDS011;381;48.770;9.188;2022-10-16T12:32:02;3.67;;;3.47;;
795;SDS011;381;48.770;9.188;2022-10-16T12:37:10;4.20;;;3.90;;
795;SDS011;381;48.770;9.188;2022-10-16T12:42:23;4.43;;;3.50;;
795;SDS011;381;48.770;9.188;2022-10-16T12:47:37;4.87;;;4.40;;
795;SDS011;381;48.770;9.188;2022-10-16T12:52:49;3.93;;;3.33;;
795;SDS011;381;48.770;9.188;2022-10-16T12:57:59;3.80;;;3.50;;
795;SDS011;381;48.770;9.188;2022-10-16T13:14:19;4.10;;;3.77;;
795;SDS011;381;48.770;9.188;2022-10-16T13:19:33;5.40;;;4.07;;
795;SDS011;381;48.770;9.188;2022-10-16T13:24:42;5.27;;;4.97;;
795;SDS011;381;48.770;9.188;2022-10-16T13:29:54;9.43;;;4.33;;
795;SDS011;381;48.770;9.188;2022-10-16T13:35:15;6.00;;;3.23;;
795;SDS011;381;48.770;9.188;2022-10-16T13:40:21;4.70;;;4.40;;
795;SDS011;381;48.770;9.188;2022-10-16T13:45:25;5.57;;;4.53;;
795;SDS011;381;48.770;9.188;2022-10-16T13:50:30;12.03;;;5.20;;
795;SDS011;381;48.770;9.188;2022-10-16T13:55:37;4.10;;;3.67;;
795;SDS011;381;48.770;9.188;2022-10-16T14:00:39;3.80;;;3.50;;
795;SDS011;381;48.770;9.188;2022-10-16T14:05:44;4.03;;;3.83;;
795;SDS011;381;48.770;9.188;2022-10-16T14:10:49;4.13;;;3.80;;
795;SDS011;381;48.770;9.188;2022-10-16T14:15:55;6.40;;;3.77;;
795;SDS011;381;48.770;9.188;2022-10-16T14:21:03;3.90;;;3.50;;
795;SDS011;381;48.770;9.188;2022-10-16T14:26:16;5.00;;;4.30;;
795;SDS011;381;48.770;9.188;2022-10-16T14:31:25;3.40;;;3.20;;
795;SDS011;381;48.770;9.188;2022-10-16T14:36:30;5.13;;;3.60;;
795;SDS011;381;48.770;9.188;2022-10-16T14:41:40;5.93;;;4.10;;
795;SDS011;381;48.770;9.188;2022-10-16T14:46:46;4.77;;;4.30;;
795;SDS011;381;48.770;9.188;2022-10-16T14:51:50;6.87;;;3.90;;
795;SDS011;381;48.770;9.188;2022-10-16T14:56:53;7.93;;;4.43;;
795;SDS011;381;48.770;9.188;2022-10-16T15:01:57;4.07;;;3.77;;
795;SDS011;381;48.770;9.188;2022-10-16T15:07:01;5.93;;;4.17;;
795;SDS011;381;48.770;9.188;2022-10-16T15:12:03;6.43;;;4.03;;
795;SDS011;381;48.770;9.188;2022-10-16T15:17:07;12.33;;;4.30;;
795;SDS011;381;48.770;9.188;2022-10-16T15:22:12;5.00;;;4.60;;
795;SDS011;381;48.770;9.188;2022-10-16T15:27:14;5.93;;;4.70;;
795;SDS011;381;48.770;9.188;2022-10-16T15:32:16;5.57;;;3.70;;
795;SDS011;381;48.770;9.188;2022-10-16T15:37:19;4.60;;;3.97;;
795;SDS011;381;48.770;9.188;2022-10-16T15:42:21;8.10;;;5.07;;
795;SDS011;381;48.770;9.188;2022-10-16T15:47:23;7.37;;;4.63;;
795;SDS011;381;48.770;9.188;2022-10-16T15:52:27;4.60;;;4.23;;
795;SDS011;381;48.770;9.188;2022-10-16T15:57:29;7.33;;;4.53;;
795;SDS011;381;48.770;9.188;2022-10-16T16:02:31;5.20;;;4.70;;
795;SDS011;381;48.770;9.188;2022-10-16T16:07:34;11.73;;;4.23;;
795;SDS011;381;48.770;9.188;2022-10-16T16:12:37;5.27;;;4.77;;
795;SDS011;381;48.770;9.188;2022-10-16T16:17:42;5.63;;;5.33;;
795;SDS011;381;48.770;9.188;2022-10-16T16:22:46;8.83;;;5.53;;
795;SDS011;381;48.770;9.188;2022-10-16T16:27:48;6.60;;;5.17;;
795;SDS011;381;48.770;9.188;2022-10-16T16:32:50;6.67;;;5.07;;
795;SDS011;381;48.770;9.188;2022-10-16T16:37:55;8.03;;;4.67;;
795;SDS011;381;48.770;9.188;2022-10-16T16:42:58;6.33;;;5.70;;
795;SDS011;381;48.770;9.188;2022-10-16T16:48:00;8.07;;;5.60;;
795;SDS011;381;48.770;9.188;2022-10-16T16:53:04;5.67;;;5.10;;
795;SDS011;381;48.770;9.188;2022-10-16T16:58:06;6.90;;;5.10;;
795;SDS011;381;48.770;9.188;2022-10-16T17:03:08;8.67;;;5.70;;
795;SDS011;381;48.770;9.188;2022-10-16T17:08:12;6.40;;;5.90;;
795;SDS011;381;48.770;9.188;2022-10-16T17:13:16;12.40;;;5.60;;
795;SDS011;381;48.770;9.188;2022-10-16T17:18:19;9.50;;;4.80;;
795;SDS011;381;48.770;9.188;2022-10-16T17:23:23;9.50;;;5.80;;
795;SDS011;381;48.770;9.188;2022-10-16T17:28:25;7.23;;;5.67;;
795;SDS011;381;48.770;9.188;2022-10-16T17:33:30;7.37;;;4.83;;
795;SDS011;381;48.770;9.188;2022-10-16T17:38:33;6.37;;;5.47;;
795;SDS011;381;48.770;9.188;2022-10-16T17:43:36;6.37;;;5.60;;
795;SDS011;381;48.770;9.188;2022-10-16T17:48:39;11.70;;;5.27;;
795;SDS011;381;48.770;9.188;2022-10-16T17:53:48;14.87;;;6.70;;
795;SDS011;381;48.770;9.188;2022-10-16T17:58:52;14.63;;;6.00;;
795;SDS011;381;48.770;9.188;2022-10-16T18:03:56;8.97;;;5.47;;
795;SDS011;381;48.770;9.188;2022-10-16T18:09:00;10.90;;;6.33;;
795;SDS011;381;48.770;9.188;2022-10-16T18:14:04;8.30;;;6.17;;
795;SDS011;381;48.770;9.188;2022-10-16T18:19:06;8.70;;;5.97;;
795;SDS011;381;48.770;9.188;2022-10-16T18:24:11;8.17;;;6.77;;
795;SDS011;381;48.770;9.188;2022-10-16T18:29:13;15.53;;;6.23;;
795;SDS011;381;48.770;9.188;2022-10-16T18:34:15;7.63;;;6.87;;
795;SDS011;381;48.770;9.188;2022-10-16T18:39:19;9.50;;;8.40;;
795;SDS011;381;48.770;9.188;2022-10-16T18:44:23;9.60;;;8.47;;
795;SDS011;381;48.770;9.188;2022-10-16T18:49:25;9.03;;;7.67;;
795;SDS011;381;48.770;9.188;2022-10-16T18:54:29;8.17;;;7.33;;
795;SDS011;381;48.770;9.188;2022-10-16T18:59:31;9.87;;;7.43;;
795;SDS011;381;48.770;9.188;2022-10-16T19:04:33;10.37;;;7.27;;
795;SDS011;381;48.770;9.188;2022-10-16T19:09:37;7.80;;;7.10;;
795;SDS011;381;48.770;9.188;2022-10-16T19:14:39;10.97;;;7.10;;
795;SDS011;381;48.770;9.188;2022-10-16T19:19:41;12.23;;;6.80;;
795;SDS011;381;48.770;9.188;2022-10-16T19:24:44;8.23;;;7.40;;
795;SDS011;381;48.770;9.188;2022-10-16T19:29:47;11.73;;;10.73;;
795;SDS011;381;48.770;9.188;2022-10-16T19:34:49;7.97;;;6.53;;
795;SDS011;381;48.770;9.188;2022-10-16T19:39:52;8.10;;;7.20;;
795;SDS011;381;48.770;9.188;2022-10-16T19:44:54;11.40;;;6.80;;
795;SDS011;381;48.770;9.188;2022-10-16T19:49:56;10.00;;;6.70;;
795;SDS011;381;48.770;9.188;2022-10-16T19:55:00;11.00;;;7.57;;
795;SDS011;381;48.770;9.188;2022-10-16T20:00:02;9.90;;;7.63;;
795;SDS011;381;48.770;9.188;2022-10-16T20:05:07;9.80;;;6.73;;
795;SDS011;381;48.770;9.188;2022-10-16T20:10:11;20.30;;;16.37;;
795;SDS011;381;48.770;9.188;2022-10-16T20:15:13;10.00;;;8.97;;
795;SDS011;381;48.770;9.188;2022-10-16T20:20:15;53.60;;;32.47;;
795;SDS011;381;48.770;9.188;2022-10-16T20:25:19;73.83;;;51.27;;
795;SDS011;381;48.770;9.188;2022-10-16T20:30:21;8.30;;;7.57;;
795;SDS011;381;48.770;9.188;2022-10-16T20:35:23;7.37;;;6.47;;
795;SDS011;381;48.770;9.188;2022-10-16T20:40:26;8.90;;;6.47;;
795;SDS011;381;48.770;9.188;2022-10-16T20:45:28;11.60;;;6.57;;
795;SDS011;381;48.770;9.188;2022-10-16T20:50:31;7.63;;;6.80;;
795;SDS011;381;48.770;9.188;2022-10-16T20:55:35;9.27;;;7.50;;
795;SDS011;381;48.770;9.188;2022-10-16T21:00:38;6.47;;;5.87;;
795;SDS011;381;48.770;9.188;2022-10-16T21:05:40;10.33;;;5.93;;
795;SDS011;381;48.770;9.188;2022-10-16T21:10:44;7.13;;;6.23;;
795;SDS011;381;48.770;9.188;2022-10-16T21:15:46;6.10;;;5.50;;
795;SDS011;381;48.770;9.188;2022-10-16T21:20:51;9.43;;;5.73;;
795;SDS011;381;48.770;9.188;2022-10-16T21:25:54;8.17;;;6.70;;
795;SDS011;381;48.770;9.188;2022-10-16T21:30:56;8.13;;;5.23;;
795;SDS011;381;48.770;9.188;2022-10-16T21:35:59;6.30;;;5.00;;
795;SDS011;381;48.770;9.188;2022-10-16T21:41:03;6.57;;;5.97;;
795;SDS011;381;48.770;9.188;2022-10-16T21:46:13;9.47;;;5.93;;
795;SDS011;381;48.770;9.188;2022-10-16T21:51:15;22.57;;;7.90;;
795;SDS011;381;48.770;9.188;2022-10-16T21:56:18;9.03;;;5.30;;
795;SDS011;381;48.770;9.188;2022-10-16T22:01:21;8.00;;;5.20;;
795;SDS011;381;48.770;9.188;2022-10-16T22:06:25;10.00;;;5.60;;
795;SDS011;381;48.770;9.188;2022-10-16T22:11:30;7.20;;;6.37;;
795;SDS011;381;48.770;9.188;2022-10-16T22:16:36;17.03;;;7.50;;
795;SDS011;381;48.770;9.188;2022-10-16T22:21:39;26.23;;;14.20;;
795;SDS011;381;48.770;9.188;2022-10-16T22:26:43;8.13;;;5.73;;
795;SDS011;381;48.770;9.188;2022-10-16T22:31:48;33.20;;;19.37;;
795;SDS011;381;48.770;9.188;2022-10-16T22:36:51;17.57;;;9.87;;
795;SDS011;381;48.770;9.188;2022-10-16T22:41:55;11.70;;;10.33;;
795;SDS011;381;48.770;9.188;2022-10-16T22:46:57;11.70;;;9.87;;
795;SDS011;381;48.770;9.188;2022-10-16T22:51:59;17.20;;;8.70;;
795;SDS011;381;48.770;9.188;2022-10-16T22:57:02;15.10;;;7.90;;
795;SDS011;381;48.770;9.188;2022-10-16T23:02:04;10.43;;;6.97;;
795;SDS011;381;48.770;9.188;2022-10-16T23:07:06;10.20;;;9.00;;
795;SDS011;381;48.770;9.188;2022-10-16T23:12:10;6.60;;;6.00;;
795;SDS011;381;48.770;9.188;2022-10-16T23:17:12;14.93;;;6.80;;
795;SDS011;381;48.770;9.188;2022-10-16T23:22:14;12.27;;;7.30;;
795;SDS011;381;48.770;9.188;2022-10-16T23:27:17;8.90;;;6.90;;
795;SDS011;381;48.770;9.188;2022-10-16T23:32:19;12.23;;;6.13;;
795;SDS011;381;48.770;9.188;2022-10-16T23:37:21;6.63;;;5.27;;
795;SDS011;381;48.770;9.188;2022-10-16T23:42:25;8.67;;;5.17;;
795;SDS011;381;48.770;9.188;2022-10-16T23:47:27;12.90;;;9.60;;
795;SDS011;381;48.770;9.188;2022-10-16T23:52:29;8.57;;;7.77;;
795;SDS011;381;48.770;9.188;2022-10-16T23:57:32;8.20;;;7.40;;
